Aérodrome :
LOGIN :

S'inscrire | Disclaimer

   EN    FR    IT 

 










Légende :    VFR   VFR Marginal   IFR   IFR Intensif   IFR Très Intensif
Visi : 
Plafond : 
>= 8 km
>= 3000ft
5 à 8 km
1000 à 3000 ft
1500m à 5 km
500 à 1000 ft
800 à 1500m
200 à 500 ft
< 800m
< 200 ft
Symboles :   Orages  Brouillard  Fortes neiges  Fortes précipitations  Vent > 20 kt
SIGMETs :   Divers  Orages  Givrage  Turbulence  Onde Orograph.  Cendres Volcan.






- Altitude de l'aérodrome : 100 ft


EBDT - Schaffen

DERNIER METAR :
  • 211323Z AUTO 12004KT 7000 SCT095/// BKN120/// BKN190/// 04/01 Q1006 WHT

METARs EXPIRÉS :
  • 211255Z AUTO 12006KT 8000 BKN170/// 04/01 Q1006 BLU
  • 211225Z AUTO 12004KT 8000 BKN180/// 04/02 Q1007 BLU
  • 211203Z AUTO 11004KT 7000 BKN170/// 03/01 Q1007 WHT
  • 211125Z AUTO 10004KT 7000 FEW012/// SCT190/// 03/01 Q1008 WHT
  • 211108Z AUTO 13003KT 6000 SCT012/// 02/01 Q1008 GRN
  • 211055Z AUTO VRB02KT 5000 FEW012/// 02/01 Q1008 WHT
  • 211052Z AUTO 10003KT 6000 FEW013/// 02/01 Q1008 WHT
  • 211025Z AUTO 11004KT 3700 BR FEW003/// SCT015/// BKN190/// 01/00 Q1008 GRN

Prévision TAF périmée.



MET'MAP, la Météo Aéronautique d'un coup d'oeil ! - Copyright ORBIFLY Décembre 2007 - Disclaimer

ORBIFLY MET'MAP TEAM :

Programmation & Développement : Alexandra Zaïnal
Conception & Développement : Baudouin d'Aumeries
Co-Programmation & Développement : Marc-Olivier Méhu
Soutien technique & logistique : Manuel Goepfert

Contact : metmap@orbifly.com




SOURCES & CREDITS :

   NOAA